createdAt,value
2018-11-20T06:51:47.166Z,21.33
2018-11-20T06:54:20.839Z,20.50
2018-11-20T06:56:57.297Z,20.33
2018-11-20T07:00:34.459Z,23.80
2018-11-20T07:03:15.325Z,20.57
2018-11-20T07:08:41.166Z,22.90
2018-11-20T07:14:07.083Z,23.57
2018-11-20T07:19:47.051Z,22.17
2018-11-20T07:25:34.872Z,22.87
2018-11-20T07:31:42.015Z,22.70
2018-11-20T07:37:08.589Z,21.53
2018-11-20T07:42:34.508Z,23.23
2018-11-20T07:45:34.417Z,21.60
2018-11-20T07:53:55.788Z,24.50
2018-11-20T07:56:58.946Z,22.43
2018-11-20T08:02:25.869Z,24.57
2018-11-20T08:08:09.449Z,24.93
2018-11-20T08:13:35.221Z,23.47
2018-11-20T08:19:24.270Z,21.93
2018-11-20T08:24:50.694Z,25.27
2018-11-20T08:27:31.836Z,24.73
2018-11-20T08:32:58.794Z,24.40
2018-11-20T08:35:58.589Z,24.33
2018-11-20T08:38:39.060Z,26.87
2018-11-20T08:44:05.540Z,26.20
2018-11-20T08:49:32.085Z,25.27
2018-11-20T08:55:18.176Z,25.77
2018-11-20T08:57:58.530Z,26.73
2018-11-20T09:00:39.730Z,25.33
2018-11-20T09:03:42.668Z,25.27
2018-11-20T09:06:24.190Z,25.20
2018-11-20T09:09:27.260Z,26.90
2018-11-20T09:15:33.897Z,25.10
2018-11-20T09:18:28.179Z,27.80
2018-11-20T09:21:09.192Z,26.07
2018-11-20T09:26:35.941Z,25.50
2018-11-20T09:32:42.671Z,25.07
2018-11-20T09:35:45.254Z,24.60
2018-11-20T09:41:12.058Z,24.10
2018-11-20T09:46:38.902Z,24.67
2018-11-20T09:52:25.605Z,24.63
2018-11-20T09:58:15.393Z,24.80
2018-11-20T10:03:41.920Z,25.47
2018-11-20T10:09:08.098Z,26.37
2018-11-20T10:14:35.849Z,26.87
2018-11-20T10:20:02.218Z,26.80
2018-11-20T10:25:28.902Z,27.10
2018-11-20T10:30:55.321Z,26.07
2018-11-20T10:34:01.158Z,27.30
2018-11-20T10:36:41.692Z,27.87
2018-11-20T10:42:09.057Z,27.33
2018-11-20T10:47:35.595Z,28.10
2018-11-20T10:53:22.991Z,27.90
2018-11-20T10:58:49.357Z,26.37
2018-11-20T11:04:32.988Z,25.20
2018-11-20T11:07:34.399Z,26.43
2018-11-20T11:13:00.989Z,27.80
2018-11-20T11:18:47.533Z,26.37
2018-11-20T11:24:15.708Z,29.17
2018-11-20T11:30:01.653Z,27.30
2018-11-20T11:33:05.431Z,28.17
2018-11-20T11:35:47.218Z,28.37
2018-11-20T11:38:27.662Z,27.73
2018-11-20T11:41:31.057Z,30.00
2018-11-20T11:46:57.404Z,30.00
2018-11-20T11:52:25.329Z,29.50
2018-11-20T11:55:26.499Z,29.30
2018-11-20T12:01:14.687Z,29.63
2018-11-20T12:06:41.309Z,31.17
2018-11-20T12:12:27.397Z,27.87
2018-11-20T12:17:53.477Z,25.53
2018-11-20T12:23:21.144Z,25.23
2018-11-20T12:29:03.998Z,24.67
2018-11-20T12:31:44.362Z,26.60
2018-11-20T12:34:25.182Z,25.77
2018-11-20T12:39:51.696Z,26.77
2018-11-20T12:45:40.628Z,26.93
2018-11-20T12:48:22.369Z,27.47
2018-11-20T12:54:09.879Z,26.97
2018-11-20T12:59:51.786Z,26.13
2018-11-20T13:05:26.474Z,28.20
2018-11-20T13:08:31.049Z,28.00
2018-11-20T13:11:18.413Z,27.40
2018-11-20T13:14:24.667Z,27.60
2018-11-20T13:17:25.016Z,27.53
2018-11-20T13:20:05.966Z,27.40
2018-11-20T13:25:32.276Z,27.77
2018-11-20T13:31:20.700Z,25.20
2018-11-20T13:36:47.336Z,25.50
2018-11-20T13:39:53.181Z,28.03
2018-11-20T13:45:45.964Z,26.23
2018-11-20T13:51:05.321Z,24.70
2018-11-20T13:56:31.486Z,25.17
2018-11-20T14:01:57.889Z,25.93
2018-11-20T14:04:51.126Z,23.77
2018-11-20T14:07:53.772Z,23.70
2018-11-20T14:13:41.789Z,24.20
2018-11-20T14:16:23.066Z,26.17
2018-11-20T14:19:27.040Z,24.37
2018-11-20T14:22:27.343Z,24.23
2018-11-20T14:27:54.201Z,26.27
2018-11-20T14:33:15.140Z,28.03
2018-11-20T14:38:42.364Z,24.00
2018-11-20T14:44:34.418Z,21.70
2018-11-20T14:47:15.151Z,20.67
2018-11-20T14:53:04.289Z,19.13
2018-11-20T14:58:31.021Z,19.43
2018-11-20T15:03:57.504Z,19.40
2018-11-20T15:10:07.423Z,18.77
2018-11-20T15:15:34.348Z,19.47
2018-11-20T15:20:54.947Z,17.07
2018-11-20T15:24:01.126Z,18.40
2018-11-20T15:26:41.966Z,16.63
2018-11-20T15:32:08.722Z,16.57
2018-11-20T15:37:36.069Z,18.27
2018-11-20T15:40:28.026Z,16.67
2018-11-20T15:43:30.305Z,15.70
2018-11-20T15:46:30.269Z,16.03
2018-11-20T15:49:24.866Z,15.90
2018-11-20T15:52:05.905Z,16.23
2018-11-20T15:57:32.240Z,16.13
2018-11-20T16:02:59.262Z,14.33
2018-11-20T16:08:25.739Z,14.97
2018-11-20T16:14:14.091Z,14.07
2018-11-20T16:17:17.552Z,14.73
2018-11-20T16:19:53.059Z,14.77
2018-11-20T16:25:19.558Z,14.13
2018-11-20T16:28:22.393Z,13.63
2018-11-20T16:33:48.976Z,15.10
2018-11-20T16:39:34.891Z,15.27
2018-11-20T16:45:23.765Z,14.70
2018-11-20T16:51:12.975Z,16.67
2018-11-20T16:53:53.999Z,13.33
2018-11-20T16:59:40.240Z,14.67
2018-11-20T17:05:06.825Z,14.17
2018-11-20T17:10:55.334Z,13.53
2018-11-20T17:13:55.681Z,14.00
2018-11-20T17:16:36.774Z,14.20
2018-11-20T17:25:21.651Z,15.20
2018-11-20T17:31:29.613Z,14.87
2018-11-20T17:36:57.063Z,14.70
2018-11-20T17:42:43.525Z,14.80
2018-11-20T17:48:03.650Z,15.23
2018-11-20T17:53:32.804Z,15.73
2018-11-20T17:56:35.974Z,15.73
2018-11-20T17:59:38.627Z,15.23
2018-11-20T18:02:42.081Z,15.13
2018-11-20T18:08:08.697Z,15.87
2018-11-20T18:13:35.312Z,16.77
2018-11-20T18:19:02.273Z,15.73
2018-11-20T18:25:03.573Z,16.17
2018-11-20T18:30:30.170Z,16.20
2018-11-20T18:35:56.515Z,17.60
2018-11-20T18:41:17.302Z,17.77
2018-11-20T18:46:37.095Z,16.67
2018-11-20T18:52:25.901Z,16.73
2018-11-20T18:55:18.521Z,19.93
2018-11-20T19:00:46.417Z,18.03
2018-11-20T19:03:45.880Z,18.87
2018-11-20T19:06:26.302Z,19.77
2018-11-20T19:11:52.908Z,18.77
2018-11-20T19:18:01.830Z,19.50
2018-11-20T19:20:42.668Z,20.33
2018-11-20T19:26:09.332Z,19.70
2018-11-20T19:31:41.395Z,19.83
2018-11-20T19:37:25.369Z,19.43
2018-11-20T19:42:50.750Z,20.33
2018-11-20T19:48:17.290Z,20.73
2018-11-20T19:53:44.378Z,22.00
2018-11-20T19:59:10.827Z,22.20
2018-11-20T20:01:51.873Z,21.90
2018-11-20T20:07:40.880Z,21.83
2018-11-20T20:13:30.709Z,23.63
2018-11-20T20:16:22.951Z,21.97
2018-11-20T20:19:03.815Z,22.23
2018-11-20T20:24:32.423Z,22.97
2018-11-20T20:29:59.315Z,24.63
2018-11-20T20:35:45.957Z,24.37
2018-11-20T20:41:12.393Z,27.50
2018-11-20T20:46:40.099Z,25.93
2018-11-20T20:49:21.005Z,25.57
2018-11-20T20:55:10.349Z,27.60
2018-11-20T21:00:58.389Z,28.13
2018-11-20T21:06:26.652Z,27.70
2018-11-20T21:11:53.260Z,27.33
